sensor_id;sensor_type;location;lat;lon;timestamp;P1;durP1;ratioP1;P2;durP2;ratioP2
67227;SDS011;54139;42.616;23.748;2023-05-15T00:00:03;28.27;;;23.00;;
67227;SDS011;54139;42.616;23.748;2023-05-15T00:02:30;27.83;;;20.92;;
67227;SDS011;54139;42.616;23.748;2023-05-15T00:04:57;24.92;;;21.92;;
67227;SDS011;54139;42.616;23.748;2023-05-15T00:07:23;26.67;;;22.10;;
67227;SDS011;54139;42.616;23.748;2023-05-15T00:09:48;28.98;;;24.48;;
67227;SDS011;54139;42.616;23.748;2023-05-15T00:12:13;28.75;;;24.98;;
67227;SDS011;54139;42.616;23.748;2023-05-15T00:14:39;28.08;;;25.00;;
67227;SDS011;54139;42.616;23.748;2023-05-15T00:17:06;25.52;;;22.88;;
67227;SDS011;54139;42.616;23.748;2023-05-15T00:19:32;26.50;;;23.40;;
67227;SDS011;54139;42.616;23.748;2023-05-15T00:21:57;28.30;;;23.60;;
67227;SDS011;54139;42.616;23.748;2023-05-15T00:24:22;26.13;;;22.23;;
67227;SDS011;54139;42.616;23.748;2023-05-15T00:26:48;26.73;;;22.67;;
67227;SDS011;54139;42.616;23.748;2023-05-15T00:29:13;25.60;;;21.65;;
67227;SDS011;54139;42.616;23.748;2023-05-15T00:31:42;23.55;;;19.67;;
67227;SDS011;54139;42.616;23.748;2023-05-15T00:34:07;15.95;;;14.25;;
67227;SDS011;54139;42.616;23.748;2023-05-15T00:36:32;18.08;;;16.20;;
67227;SDS011;54139;42.616;23.748;2023-05-15T00:39:00;16.88;;;15.23;;
67227;SDS011;54139;42.616;23.748;2023-05-15T00:41:26;17.42;;;15.48;;
67227;SDS011;54139;42.616;23.748;2023-05-15T00:43:56;15.45;;;13.85;;
67227;SDS011;54139;42.616;23.748;2023-05-15T00:46:21;15.52;;;13.02;;
67227;SDS011;54139;42.616;23.748;2023-05-15T00:48:49;13.93;;;12.57;;
67227;SDS011;54139;42.616;23.748;2023-05-15T00:51:15;12.93;;;11.90;;
67227;SDS011;54139;42.616;23.748;2023-05-15T00:53:42;12.18;;;11.15;;
67227;SDS011;54139;42.616;23.748;2023-05-15T00:56:09;12.68;;;11.50;;
67227;SDS011;54139;42.616;23.748;2023-05-15T00:58:36;12.07;;;10.98;;
67227;SDS011;54139;42.616;23.748;2023-05-15T01:01:02;12.98;;;11.98;;
67227;SDS011;54139;42.616;23.748;2023-05-15T01:03:30;12.30;;;11.02;;
67227;SDS011;54139;42.616;23.748;2023-05-15T01:05:55;11.73;;;10.82;;
67227;SDS011;54139;42.616;23.748;2023-05-15T01:11:01;13.45;;;12.27;;
67227;SDS011;54139;42.616;23.748;2023-05-15T01:13:28;13.90;;;11.80;;
67227;SDS011;54139;42.616;23.748;2023-05-15T01:15:54;14.73;;;12.85;;
67227;SDS011;54139;42.616;23.748;2023-05-15T01:18:19;15.50;;;14.02;;
67227;SDS011;54139;42.616;23.748;2023-05-15T01:28:37;17.10;;;15.30;;
67227;SDS011;54139;42.616;23.748;2023-05-15T01:31:05;19.42;;;16.48;;
67227;SDS011;54139;42.616;23.748;2023-05-15T01:33:33;17.55;;;15.73;;
67227;SDS011;54139;42.616;23.748;2023-05-15T01:36:06;17.58;;;15.68;;
67227;SDS011;54139;42.616;23.748;2023-05-15T01:38:43;17.45;;;15.63;;
67227;SDS011;54139;42.616;23.748;2023-05-15T01:43:45;16.38;;;14.68;;
67227;SDS011;54139;42.616;23.748;2023-05-15T01:46:13;14.95;;;13.35;;
67227;SDS011;54139;42.616;23.748;2023-05-15T01:48:39;18.88;;;13.60;;
67227;SDS011;54139;42.616;23.748;2023-05-15T01:51:05;18.38;;;16.58;;
67227;SDS011;54139;42.616;23.748;2023-05-15T01:53:31;18.23;;;16.38;;
67227;SDS011;54139;42.616;23.748;2023-05-15T01:55:57;16.52;;;14.80;;
67227;SDS011;54139;42.616;23.748;2023-05-15T01:58:24;16.02;;;14.30;;
67227;SDS011;54139;42.616;23.748;2023-05-15T02:00:49;17.30;;;14.80;;
67227;SDS011;54139;42.616;23.748;2023-05-15T02:03:15;14.60;;;13.20;;
67227;SDS011;54139;42.616;23.748;2023-05-15T02:05:40;14.85;;;13.35;;
67227;SDS011;54139;42.616;23.748;2023-05-15T02:08:06;15.35;;;13.85;;
67227;SDS011;54139;42.616;23.748;2023-05-15T02:10:33;14.52;;;12.20;;
67227;SDS011;54139;42.616;23.748;2023-05-15T02:13:00;13.57;;;12.43;;
67227;SDS011;54139;42.616;23.748;2023-05-15T02:15:25;13.30;;;12.20;;
67227;SDS011;54139;42.616;23.748;2023-05-15T02:17:51;13.38;;;12.18;;
67227;SDS011;54139;42.616;23.748;2023-05-15T02:20:16;14.70;;;13.05;;
67227;SDS011;54139;42.616;23.748;2023-05-15T02:22:42;12.63;;;11.10;;
67227;SDS011;54139;42.616;23.748;2023-05-15T02:25:07;13.90;;;12.68;;
67227;SDS011;54139;42.616;23.748;2023-05-15T02:27:45;14.55;;;13.05;;
67227;SDS011;54139;42.616;23.748;2023-05-15T02:37:45;16.27;;;14.57;;
67227;SDS011;54139;42.616;23.748;2023-05-15T02:40:13;21.90;;;16.00;;
67227;SDS011;54139;42.616;23.748;2023-05-15T02:42:39;21.25;;;16.77;;
67227;SDS011;54139;42.616;23.748;2023-05-15T02:45:05;18.90;;;16.92;;
67227;SDS011;54139;42.616;23.748;2023-05-15T02:47:31;19.35;;;16.88;;
67227;SDS011;54139;42.616;23.748;2023-05-15T02:49:59;20.52;;;16.85;;
67227;SDS011;54139;42.616;23.748;2023-05-15T02:52:26;18.85;;;16.38;;
67227;SDS011;54139;42.616;23.748;2023-05-15T02:54:51;19.70;;;16.20;;
67227;SDS011;54139;42.616;23.748;2023-05-15T02:57:17;21.98;;;17.60;;
67227;SDS011;54139;42.616;23.748;2023-05-15T02:59:42;17.92;;;16.00;;
67227;SDS011;54139;42.616;23.748;2023-05-15T03:02:08;21.30;;;17.77;;
67227;SDS011;54139;42.616;23.748;2023-05-15T03:04:33;20.90;;;16.92;;
67227;SDS011;54139;42.616;23.748;2023-05-15T03:06:58;27.33;;;18.85;;
67227;SDS011;54139;42.616;23.748;2023-05-15T03:09:24;24.52;;;19.50;;
67227;SDS011;54139;42.616;23.748;2023-05-15T03:11:49;27.05;;;22.35;;
67227;SDS011;54139;42.616;23.748;2023-05-15T03:14:15;29.13;;;22.65;;
67227;SDS011;54139;42.616;23.748;2023-05-15T03:16:41;28.20;;;21.63;;
67227;SDS011;54139;42.616;23.748;2023-05-15T03:19:07;36.28;;;25.25;;
67227;SDS011;54139;42.616;23.748;2023-05-15T03:21:33;32.72;;;25.42;;
67227;SDS011;54139;42.616;23.748;2023-05-15T03:24:00;29.05;;;23.63;;
67227;SDS011;54139;42.616;23.748;2023-05-15T03:26:29;30.27;;;24.08;;
67227;SDS011;54139;42.616;23.748;2023-05-15T03:28:54;33.78;;;23.17;;
67227;SDS011;54139;42.616;23.748;2023-05-15T03:31:20;28.63;;;22.27;;
67227;SDS011;54139;42.616;23.748;2023-05-15T03:33:45;26.77;;;22.15;;
67227;SDS011;54139;42.616;23.748;2023-05-15T03:36:17;30.92;;;22.55;;
67227;SDS011;54139;42.616;23.748;2023-05-15T03:38:43;32.78;;;22.05;;
67227;SDS011;54139;42.616;23.748;2023-05-15T03:41:09;21.38;;;18.38;;
67227;SDS011;54139;42.616;23.748;2023-05-15T03:43:35;24.77;;;19.40;;
67227;SDS011;54139;42.616;23.748;2023-05-15T03:46:00;29.90;;;19.52;;
67227;SDS011;54139;42.616;23.748;2023-05-15T03:48:26;21.63;;;17.40;;
67227;SDS011;54139;42.616;23.748;2023-05-15T03:50:52;20.70;;;17.08;;
67227;SDS011;54139;42.616;23.748;2023-05-15T03:53:17;20.33;;;16.33;;
67227;SDS011;54139;42.616;23.748;2023-05-15T03:55:46;21.02;;;17.70;;
67227;SDS011;54139;42.616;23.748;2023-05-15T03:58:31;19.60;;;15.45;;
67227;SDS011;54139;42.616;23.748;2023-05-15T04:00:56;19.15;;;16.67;;
67227;SDS011;54139;42.616;23.748;2023-05-15T04:03:22;20.42;;;17.10;;
67227;SDS011;54139;42.616;23.748;2023-05-15T04:05:47;18.75;;;16.50;;
67227;SDS011;54139;42.616;23.748;2023-05-15T04:08:14;18.55;;;16.45;;
67227;SDS011;54139;42.616;23.748;2023-05-15T04:10:39;20.55;;;16.55;;
67227;SDS011;54139;42.616;23.748;2023-05-15T04:13:04;22.15;;;17.70;;
67227;SDS011;54139;42.616;23.748;2023-05-15T04:15:30;21.63;;;17.30;;
67227;SDS011;54139;42.616;23.748;2023-05-15T04:17:56;22.10;;;16.85;;
67227;SDS011;54139;42.616;23.748;2023-05-15T04:20:22;20.40;;;17.13;;
67227;SDS011;54139;42.616;23.748;2023-05-15T04:22:48;20.35;;;17.33;;
67227;SDS011;54139;42.616;23.748;2023-05-15T04:25:15;23.80;;;17.58;;
67227;SDS011;54139;42.616;23.748;2023-05-15T04:27:41;24.40;;;18.10;;
67227;SDS011;54139;42.616;23.748;2023-05-15T04:30:06;26.08;;;18.58;;
67227;SDS011;54139;42.616;23.748;2023-05-15T04:32:33;21.40;;;16.73;;
67227;SDS011;54139;42.616;23.748;2023-05-15T04:34:59;22.75;;;18.52;;
67227;SDS011;54139;42.616;23.748;2023-05-15T04:37:24;24.17;;;17.38;;
67227;SDS011;54139;42.616;23.748;2023-05-15T04:39:50;19.42;;;16.65;;
67227;SDS011;54139;42.616;23.748;2023-05-15T04:42:15;24.00;;;18.73;;
67227;SDS011;54139;42.616;23.748;2023-05-15T04:44:40;25.23;;;19.00;;
67227;SDS011;54139;42.616;23.748;2023-05-15T04:47:06;24.10;;;21.08;;
67227;SDS011;54139;42.616;23.748;2023-05-15T04:49:32;26.70;;;20.20;;
67227;SDS011;54139;42.616;23.748;2023-05-15T04:51:57;30.52;;;21.85;;
67227;SDS011;54139;42.616;23.748;2023-05-15T04:54:23;25.67;;;22.33;;
67227;SDS011;54139;42.616;23.748;2023-05-15T04:56:48;28.25;;;22.77;;
67227;SDS011;54139;42.616;23.748;2023-05-15T04:59:18;28.92;;;22.80;;
67227;SDS011;54139;42.616;23.748;2023-05-15T05:01:44;29.90;;;22.15;;
67227;SDS011;54139;42.616;23.748;2023-05-15T05:04:09;29.98;;;23.65;;
67227;SDS011;54139;42.616;23.748;2023-05-15T05:06:35;26.58;;;22.58;;
67227;SDS011;54139;42.616;23.748;2023-05-15T05:09:01;25.95;;;23.10;;
67227;SDS011;54139;42.616;23.748;2023-05-15T05:11:27;25.27;;;22.38;;
67227;SDS011;54139;42.616;23.748;2023-05-15T05:13:52;31.05;;;23.65;;
67227;SDS011;54139;42.616;23.748;2023-05-15T05:16:18;28.15;;;22.77;;
67227;SDS011;54139;42.616;23.748;2023-05-15T05:18:47;27.60;;;23.25;;
67227;SDS011;54139;42.616;23.748;2023-05-15T05:21:12;34.17;;;23.92;;
67227;SDS011;54139;42.616;23.748;2023-05-15T05:23:38;28.00;;;22.02;;
67227;SDS011;54139;42.616;23.748;2023-05-15T05:26:04;29.48;;;24.13;;
67227;SDS011;54139;42.616;23.748;2023-05-15T05:28:30;26.38;;;22.73;;
67227;SDS011;54139;42.616;23.748;2023-05-15T05:30:55;31.17;;;23.23;;
67227;SDS011;54139;42.616;23.748;2023-05-15T05:33:21;25.15;;;21.80;;
67227;SDS011;54139;42.616;23.748;2023-05-15T05:35:47;24.77;;;21.38;;
67227;SDS011;54139;42.616;23.748;2023-05-15T05:38:12;24.00;;;21.45;;
67227;SDS011;54139;42.616;23.748;2023-05-15T05:40:37;25.50;;;22.60;;
67227;SDS011;54139;42.616;23.748;2023-05-15T05:43:03;28.50;;;22.38;;
67227;SDS011;54139;42.616;23.748;2023-05-15T05:45:29;29.90;;;24.80;;
67227;SDS011;54139;42.616;23.748;2023-05-15T05:47:55;21.88;;;18.77;;
67227;SDS011;54139;42.616;23.748;2023-05-15T05:50:21;24.45;;;21.73;;
67227;SDS011;54139;42.616;23.748;2023-05-15T05:52:46;26.42;;;22.13;;
67227;SDS011;54139;42.616;23.748;2023-05-15T05:55:11;24.77;;;22.02;;
67227;SDS011;54139;42.616;23.748;2023-05-15T05:57:36;30.77;;;23.88;;
67227;SDS011;54139;42.616;23.748;2023-05-15T06:00:02;28.48;;;20.50;;
67227;SDS011;54139;42.616;23.748;2023-05-15T06:02:29;25.08;;;22.40;;
67227;SDS011;54139;42.616;23.748;2023-05-15T06:04:55;25.27;;;20.15;;
67227;SDS011;54139;42.616;23.748;2023-05-15T06:07:20;26.75;;;21.13;;
67227;SDS011;54139;42.616;23.748;2023-05-15T06:09:47;25.83;;;21.75;;
67227;SDS011;54139;42.616;23.748;2023-05-15T06:12:14;28.05;;;23.70;;
67227;SDS011;54139;42.616;23.748;2023-05-15T06:14:39;28.08;;;23.55;;
67227;SDS011;54139;42.616;23.748;2023-05-15T06:17:04;27.33;;;21.80;;
67227;SDS011;54139;42.616;23.748;2023-05-15T06:19:30;28.13;;;23.98;;
67227;SDS011;54139;42.616;23.748;2023-05-15T06:21:55;28.40;;;22.40;;
67227;SDS011;54139;42.616;23.748;2023-05-15T06:24:20;24.77;;;20.95;;
67227;SDS011;54139;42.616;23.748;2023-05-15T06:26:46;26.93;;;20.70;;
67227;SDS011;54139;42.616;23.748;2023-05-15T06:29:11;29.55;;;21.15;;
67227;SDS011;54139;42.616;23.748;2023-05-15T06:31:36;23.63;;;18.13;;
67227;SDS011;54139;42.616;23.748;2023-05-15T06:34:01;23.13;;;17.55;;
67227;SDS011;54139;42.616;23.748;2023-05-15T06:36:27;25.40;;;19.67;;
67227;SDS011;54139;42.616;23.748;2023-05-15T06:38:52;24.05;;;20.83;;
67227;SDS011;54139;42.616;23.748;2023-05-15T06:41:17;20.17;;;17.17;;
67227;SDS011;54139;42.616;23.748;2023-05-15T06:43:43;29.30;;;20.30;;
67227;SDS011;54139;42.616;23.748;2023-05-15T06:46:09;22.88;;;18.98;;
67227;SDS011;54139;42.616;23.748;2023-05-15T06:48:35;29.73;;;19.88;;
67227;SDS011;54139;42.616;23.748;2023-05-15T06:51:00;24.23;;;21.02;;
67227;SDS011;54139;42.616;23.748;2023-05-15T06:53:26;22.63;;;18.80;;
67227;SDS011;54139;42.616;23.748;2023-05-15T06:55:51;22.45;;;19.75;;
67227;SDS011;54139;42.616;23.748;2023-05-15T06:58:16;21.00;;;18.88;;
67227;SDS011;54139;42.616;23.748;2023-05-15T07:00:42;23.10;;;19.48;;
67227;SDS011;54139;42.616;23.748;2023-05-15T07:03:07;20.83;;;18.55;;
67227;SDS011;54139;42.616;23.748;2023-05-15T07:05:33;20.98;;;18.55;;
67227;SDS011;54139;42.616;23.748;2023-05-15T07:07:58;23.45;;;19.98;;
67227;SDS011;54139;42.616;23.748;2023-05-15T07:10:23;21.15;;;18.45;;
67227;SDS011;54139;42.616;23.748;2023-05-15T07:12:49;22.02;;;19.52;;
67227;SDS011;54139;42.616;23.748;2023-05-15T07:15:14;21.42;;;19.17;;
67227;SDS011;54139;42.616;23.748;2023-05-15T07:17:41;21.77;;;19.55;;
67227;SDS011;54139;42.616;23.748;2023-05-15T07:20:07;21.48;;;19.30;;
67227;SDS011;54139;42.616;23.748;2023-05-15T07:22:32;20.23;;;18.20;;
67227;SDS011;54139;42.616;23.748;2023-05-15T07:24:58;21.85;;;19.55;;
67227;SDS011;54139;42.616;23.748;2023-05-15T07:27:23;19.45;;;17.38;;
67227;SDS011;54139;42.616;23.748;2023-05-15T07:29:48;20.13;;;18.13;;
67227;SDS011;54139;42.616;23.748;2023-05-15T07:32:14;20.40;;;18.40;;
67227;SDS011;54139;42.616;23.748;2023-05-15T07:34:39;19.92;;;17.75;;
67227;SDS011;54139;42.616;23.748;2023-05-15T07:37:06;20.80;;;17.65;;
67227;SDS011;54139;42.616;23.748;2023-05-15T07:39:31;20.65;;;18.60;;
67227;SDS011;54139;42.616;23.748;2023-05-15T07:41:56;20.10;;;17.95;;
67227;SDS011;54139;42.616;23.748;2023-05-15T07:44:22;17.13;;;15.05;;
67227;SDS011;54139;42.616;23.748;2023-05-15T07:46:47;18.63;;;16.83;;
67227;SDS011;54139;42.616;23.748;2023-05-15T07:49:12;19.15;;;17.30;;
67227;SDS011;54139;42.616;23.748;2023-05-15T07:51:38;16.45;;;14.80;;
67227;SDS011;54139;42.616;23.748;2023-05-15T07:54:04;18.70;;;16.90;;
67227;SDS011;54139;42.616;23.748;2023-05-15T07:56:29;18.73;;;16.92;;
67227;SDS011;54139;42.616;23.748;2023-05-15T07:58:55;19.90;;;17.80;;
67227;SDS011;54139;42.616;23.748;2023-05-15T08:01:21;19.08;;;17.10;;
67227;SDS011;54139;42.616;23.748;2023-05-15T08:03:46;19.88;;;17.80;;
67227;SDS011;54139;42.616;23.748;2023-05-15T08:06:11;18.98;;;16.58;;
67227;SDS011;54139;42.616;23.748;2023-05-15T08:08:36;18.80;;;16.90;;
67227;SDS011;54139;42.616;23.748;2023-05-15T08:11:02;18.17;;;16.30;;
67227;SDS011;54139;42.616;23.748;2023-05-15T08:13:27;17.98;;;15.82;;
67227;SDS011;54139;42.616;23.748;2023-05-15T08:15:52;17.88;;;15.95;;
67227;SDS011;54139;42.616;23.748;2023-05-15T08:18:18;18.35;;;16.55;;
67227;SDS011;54139;42.616;23.748;2023-05-15T08:20:44;15.43;;;13.98;;
67227;SDS011;54139;42.616;23.748;2023-05-15T08:23:10;15.48;;;13.88;;
67227;SDS011;54139;42.616;23.748;2023-05-15T08:25:35;16.42;;;14.88;;
67227;SDS011;54139;42.616;23.748;2023-05-15T08:28:01;15.68;;;14.32;;
67227;SDS011;54139;42.616;23.748;2023-05-15T08:30:26;15.88;;;14.48;;
67227;SDS011;54139;42.616;23.748;2023-05-15T08:32:51;16.17;;;14.77;;
67227;SDS011;54139;42.616;23.748;2023-05-15T08:35:17;16.23;;;14.80;;
67227;SDS011;54139;42.616;23.748;2023-05-15T08:37:42;21.02;;;14.52;;
67227;SDS011;54139;42.616;23.748;2023-05-15T08:40:07;15.77;;;13.80;;
67227;SDS011;54139;42.616;23.748;2023-05-15T08:45:05;15.55;;;14.15;;
67227;SDS011;54139;42.616;23.748;2023-05-15T08:47:32;14.60;;;12.95;;
67227;SDS011;54139;42.616;23.748;2023-05-15T08:52:31;15.32;;;14.00;;
67227;SDS011;54139;42.616;23.748;2023-05-15T08:54:57;15.60;;;14.07;;
67227;SDS011;54139;42.616;23.748;2023-05-15T08:57:24;15.43;;;14.13;;
67227;SDS011;54139;42.616;23.748;2023-05-15T08:59:50;15.73;;;14.27;;
67227;SDS011;54139;42.616;23.748;2023-05-15T09:02:15;16.08;;;14.68;;
67227;SDS011;54139;42.616;23.748;2023-05-15T09:04:41;16.05;;;14.23;;
67227;SDS011;54139;42.616;23.748;2023-05-15T09:07:06;15.40;;;14.15;;
67227;SDS011;54139;42.616;23.748;2023-05-15T09:09:32;15.57;;;14.18;;
67227;SDS011;54139;42.616;23.748;2023-05-15T09:11:59;16.25;;;14.65;;
67227;SDS011;54139;42.616;23.748;2023-05-15T09:14:26;15.38;;;14.02;;
67227;SDS011;54139;42.616;23.748;2023-05-15T09:16:51;19.25;;;14.65;;
67227;SDS011;54139;42.616;23.748;2023-05-15T09:19:18;16.05;;;14.65;;
67227;SDS011;54139;42.616;23.748;2023-05-15T09:21:43;15.93;;;14.45;;
67227;SDS011;54139;42.616;23.748;2023-05-15T09:24:19;15.70;;;14.30;;
67227;SDS011;54139;42.616;23.748;2023-05-15T09:26:46;16.15;;;14.55;;
67227;SDS011;54139;42.616;23.748;2023-05-15T09:29:14;16.15;;;14.63;;
67227;SDS011;54139;42.616;23.748;2023-05-15T09:31:40;15.98;;;14.57;;
67227;SDS011;54139;42.616;23.748;2023-05-15T09:34:05;14.40;;;13.02;;
67227;SDS011;54139;42.616;23.748;2023-05-15T09:36:33;15.80;;;14.50;;
67227;SDS011;54139;42.616;23.748;2023-05-15T09:38:59;16.35;;;14.95;;
67227;SDS011;54139;42.616;23.748;2023-05-15T09:41:26;15.77;;;14.27;;
67227;SDS011;54139;42.616;23.748;2023-05-15T09:43:55;16.10;;;14.70;;
67227;SDS011;54139;42.616;23.748;2023-05-15T09:46:23;15.77;;;14.38;;
67227;SDS011;54139;42.616;23.748;2023-05-15T09:48:52;15.25;;;14.05;;
67227;SDS011;54139;42.616;23.748;2023-05-15T09:51:18;15.55;;;14.20;;
67227;SDS011;54139;42.616;23.748;2023-05-15T09:53:53;16.48;;;14.98;;
67227;SDS011;54139;42.616;23.748;2023-05-15T09:56:19;17.83;;;16.00;;
67227;SDS011;54139;42.616;23.748;2023-05-15T09:58:54;18.27;;;16.38;;
67227;SDS011;54139;42.616;23.748;2023-05-15T10:01:21;17.23;;;15.32;;
67227;SDS011;54139;42.616;23.748;2023-05-15T10:03:56;18.10;;;16.35;;
67227;SDS011;54139;42.616;23.748;2023-05-15T10:06:23;16.67;;;15.32;;
67227;SDS011;54139;42.616;23.748;2023-05-15T10:08:52;18.05;;;16.52;;
67227;SDS011;54139;42.616;23.748;2023-05-15T10:11:18;15.57;;;14.05;;
67227;SDS011;54139;42.616;23.748;2023-05-15T10:13:43;16.58;;;15.07;;
67227;SDS011;54139;42.616;23.748;2023-05-15T10:16:09;17.38;;;15.68;;
67227;SDS011;54139;42.616;23.748;2023-05-15T10:18:35;15.98;;;14.55;;
67227;SDS011;54139;42.616;23.748;2023-05-15T10:21:02;16.23;;;14.18;;
67227;SDS011;54139;42.616;23.748;2023-05-15T10:23:29;16.15;;;14.63;;
67227;SDS011;54139;42.616;23.748;2023-05-15T10:25:59;17.10;;;15.60;;
67227;SDS011;54139;42.616;23.748;2023-05-15T10:28:27;14.25;;;12.93;;
67227;SDS011;54139;42.616;23.748;2023-05-15T10:30:53;16.52;;;14.95;;
67227;SDS011;54139;42.616;23.748;2023-05-15T10:33:19;15.68;;;14.38;;
67227;SDS011;54139;42.616;23.748;2023-05-15T10:35:44;17.10;;;15.35;;
67227;SDS011;54139;42.616;23.748;2023-05-15T10:38:11;16.02;;;14.60;;
67227;SDS011;54139;42.616;23.748;2023-05-15T10:40:36;16.02;;;14.63;;
67227;SDS011;54139;42.616;23.748;2023-05-15T10:43:03;16.40;;;14.98;;
67227;SDS011;54139;42.616;23.748;2023-05-15T10:45:29;18.25;;;15.07;;
67227;SDS011;54139;42.616;23.748;2023-05-15T10:47:55;15.07;;;13.68;;
67227;SDS011;54139;42.616;23.748;2023-05-15T10:50:21;16.05;;;13.85;;
67227;SDS011;54139;42.616;23.748;2023-05-15T10:52:49;16.27;;;14.88;;
67227;SDS011;54139;42.616;23.748;2023-05-15T10:55:16;16.85;;;15.45;;
67227;SDS011;54139;42.616;23.748;2023-05-15T10:57:42;16.52;;;15.10;;
67227;SDS011;54139;42.616;23.748;2023-05-15T11:02:48;19.17;;;16.88;;
67227;SDS011;54139;42.616;23.748;2023-05-15T11:05:13;18.27;;;16.70;;
67227;SDS011;54139;42.616;23.748;2023-05-15T11:07:39;18.15;;;16.30;;
67227;SDS011;54139;42.616;23.748;2023-05-15T11:12:55;18.70;;;16.90;;
67227;SDS011;54139;42.616;23.748;2023-05-15T11:15:20;19.73;;;17.83;;
67227;SDS011;54139;42.616;23.748;2023-05-15T11:18:07;18.33;;;16.55;;
67227;SDS011;54139;42.616;23.748;2023-05-15T11:20:32;20.55;;;18.10;;
67227;SDS011;54139;42.616;23.748;2023-05-15T11:22:57;21.45;;;19.33;;
67227;SDS011;54139;42.616;23.748;2023-05-15T11:25:27;22.25;;;20.00;;
67227;SDS011;54139;42.616;23.748;2023-05-15T11:27:53;23.02;;;19.67;;
67227;SDS011;54139;42.616;23.748;2023-05-15T11:30:19;20.75;;;18.85;;
67227;SDS011;54139;42.616;23.748;2023-05-15T11:35:33;21.65;;;19.60;;
67227;SDS011;54139;42.616;23.748;2023-05-15T11:38:01;21.75;;;19.65;;
67227;SDS011;54139;42.616;23.748;2023-05-15T11:40:28;22.92;;;17.95;;
67227;SDS011;54139;42.616;23.748;2023-05-15T11:45:38;22.40;;;19.75;;
67227;SDS011;54139;42.616;23.748;2023-05-15T11:48:05;22.70;;;20.05;;
67227;SDS011;54139;42.616;23.748;2023-05-15T11:50:31;24.77;;;20.83;;
67227;SDS011;54139;42.616;23.748;2023-05-15T11:53:00;23.63;;;18.77;;
67227;SDS011;54139;42.616;23.748;2023-05-15T11:55:25;21.70;;;19.63;;
67227;SDS011;54139;42.616;23.748;2023-05-15T11:57:51;21.50;;;19.30;;
67227;SDS011;54139;42.616;23.748;2023-05-15T12:00:17;19.77;;;15.50;;
67227;SDS011;54139;42.616;23.748;2023-05-15T12:02:43;19.77;;;17.88;;
67227;SDS011;54139;42.616;23.748;2023-05-15T12:05:08;18.55;;;16.73;;
67227;SDS011;54139;42.616;23.748;2023-05-15T12:07:43;20.50;;;18.38;;
67227;SDS011;54139;42.616;23.748;2023-05-15T12:10:09;20.65;;;18.33;;
67227;SDS011;54139;42.616;23.748;2023-05-15T12:12:39;18.60;;;16.48;;
67227;SDS011;54139;42.616;23.748;2023-05-15T12:15:07;20.35;;;18.15;;
67227;SDS011;54139;42.616;23.748;2023-05-15T12:17:32;18.95;;;16.95;;
67227;SDS011;54139;42.616;23.748;2023-05-15T12:19:58;19.63;;;17.52;;
67227;SDS011;54139;42.616;23.748;2023-05-15T12:22:25;19.95;;;17.95;;
67227;SDS011;54139;42.616;23.748;2023-05-15T12:24:50;20.20;;;18.30;;
67227;SDS011;54139;42.616;23.748;2023-05-15T12:27:15;21.48;;;17.85;;
67227;SDS011;54139;42.616;23.748;2023-05-15T12:29:41;19.27;;;17.38;;
67227;SDS011;54139;42.616;23.748;2023-05-15T12:32:08;18.52;;;16.70;;
67227;SDS011;54139;42.616;23.748;2023-05-15T12:34:33;18.60;;;16.85;;
67227;SDS011;54139;42.616;23.748;2023-05-15T12:36:59;20.33;;;18.17;;
67227;SDS011;54139;42.616;23.748;2023-05-15T12:39:25;23.58;;;17.65;;
67227;SDS011;54139;42.616;23.748;2023-05-15T12:41:51;18.77;;;16.88;;
67227;SDS011;54139;42.616;23.748;2023-05-15T12:44:18;20.15;;;18.08;;
67227;SDS011;54139;42.616;23.748;2023-05-15T12:46:44;21.80;;;18.38;;
67227;SDS011;54139;42.616;23.748;2023-05-15T12:49:10;18.92;;;17.02;;
67227;SDS011;54139;42.616;23.748;2023-05-15T12:51:40;21.63;;;19.30;;
67227;SDS011;54139;42.616;23.748;2023-05-15T12:54:06;19.23;;;17.42;;
67227;SDS011;54139;42.616;23.748;2023-05-15T12:56:40;20.70;;;18.08;;
67227;SDS011;54139;42.616;23.748;2023-05-15T12:59:05;19.75;;;17.30;;
67227;SDS011;54139;42.616;23.748;2023-05-15T13:01:31;18.25;;;16.52;;
67227;SDS011;54139;42.616;23.748;2023-05-15T13:03:56;18.38;;;16.60;;
67227;SDS011;54139;42.616;23.748;2023-05-15T13:06:22;20.17;;;16.90;;
67227;SDS011;54139;42.616;23.748;2023-05-15T13:08:47;20.30;;;18.10;;
67227;SDS011;54139;42.616;23.748;2023-05-15T13:11:13;19.83;;;17.90;;
67227;SDS011;54139;42.616;23.748;2023-05-15T13:16:16;23.30;;;20.77;;
67227;SDS011;54139;42.616;23.748;2023-05-15T13:18:41;22.65;;;20.08;;
67227;SDS011;54139;42.616;23.748;2023-05-15T13:21:06;24.33;;;21.55;;
67227;SDS011;54139;42.616;23.748;2023-05-15T13:23:31;22.63;;;20.23;;
67227;SDS011;54139;42.616;23.748;2023-05-15T13:25:57;22.70;;;20.33;;
67227;SDS011;54139;42.616;23.748;2023-05-15T13:28:22;27.05;;;20.88;;
67227;SDS011;54139;42.616;23.748;2023-05-15T13:30:48;24.73;;;20.70;;
67227;SDS011;54139;42.616;23.748;2023-05-15T13:33:13;22.33;;;19.50;;
67227;SDS011;54139;42.616;23.748;2023-05-15T13:35:41;22.25;;;19.80;;
67227;SDS011;54139;42.616;23.748;2023-05-15T13:38:07;21.33;;;19.20;;
67227;SDS011;54139;42.616;23.748;2023-05-15T13:40:33;21.42;;;19.20;;
67227;SDS011;54139;42.616;23.748;2023-05-15T13:43:01;20.63;;;18.42;;
67227;SDS011;54139;42.616;23.748;2023-05-15T13:45:26;20.95;;;18.90;;
67227;SDS011;54139;42.616;23.748;2023-05-15T13:47:53;20.70;;;17.90;;
67227;SDS011;54139;42.616;23.748;2023-05-15T13:50:19;18.40;;;16.70;;
67227;SDS011;54139;42.616;23.748;2023-05-15T13:52:45;16.83;;;14.80;;
67227;SDS011;54139;42.616;23.748;2023-05-15T13:55:11;17.60;;;13.75;;
67227;SDS011;54139;42.616;23.748;2023-05-15T13:57:37;18.17;;;16.58;;
67227;SDS011;54139;42.616;23.748;2023-05-15T14:00:06;17.65;;;15.77;;
67227;SDS011;54139;42.616;23.748;2023-05-15T14:02:32;19.60;;;17.10;;
67227;SDS011;54139;42.616;23.748;2023-05-15T14:04:57;17.60;;;15.80;;
67227;SDS011;54139;42.616;23.748;2023-05-15T14:07:22;17.38;;;15.52;;
67227;SDS011;54139;42.616;23.748;2023-05-15T14:09:48;17.50;;;15.65;;
67227;SDS011;54139;42.616;23.748;2023-05-15T14:12:13;18.75;;;16.67;;
67227;SDS011;54139;42.616;23.748;2023-05-15T14:14:39;17.08;;;15.38;;
67227;SDS011;54139;42.616;23.748;2023-05-15T14:17:04;17.60;;;15.88;;
67227;SDS011;54139;42.616;23.748;2023-05-15T14:19:29;18.27;;;16.23;;
67227;SDS011;54139;42.616;23.748;2023-05-15T14:21:55;18.52;;;16.70;;
67227;SDS011;54139;42.616;23.748;2023-05-15T14:24:20;21.45;;;15.60;;
67227;SDS011;54139;42.616;23.748;2023-05-15T14:26:47;16.52;;;14.75;;
67227;SDS011;54139;42.616;23.748;2023-05-15T14:29:12;18.13;;;15.73;;
67227;SDS011;54139;42.616;23.748;2023-05-15T14:31:38;17.35;;;15.52;;
67227;SDS011;54139;42.616;23.748;2023-05-15T14:34:04;16.70;;;15.02;;
67227;SDS011;54139;42.616;23.748;2023-05-15T14:36:30;16.30;;;14.80;;
67227;SDS011;54139;42.616;23.748;2023-05-15T14:38:55;17.08;;;15.23;;
67227;SDS011;54139;42.616;23.748;2023-05-15T14:41:21;15.15;;;13.75;;